Time;durP1;ratioP1;P1;durP2;ratioP2;P2;SDS_P1;SDS_P2;PMS_P1;PMS_P2;Temp;Humidity;BMP_temperature;BMP_pressure;BME280_temperature;BME280_humidity;BME280_pressure;Samples;Min_cycle;Max_cycle;Signal;HPM_P1;HPM_P2
2022/05/08 00:01:12;;;;;;;13.57;12.20;;;;;;;13.75;99.92;95888.75;4347572;32;20280;-60
2022/05/08 00:03:37;;;;;;;13.83;12.70;;;;;;;13.76;100.00;95886.88;4341281;32;20220;-60
2022/05/08 00:06:10;;;;;;;15.27;13.87;;;;;;;13.65;100.00;95880.19;4344179;32;20256;-60
2022/05/08 00:08:38;;;;;;;14.60;13.40;;;;;;;13.62;100.00;95880.78;4334333;32;20205;-60
2022/05/08 00:11:09;;;;;;;14.37;13.27;;;;;;;13.60;100.00;95886.41;4368254;32;20192;-60
2022/05/08 00:13:35;;;;;;;14.93;13.73;;;;;;;13.63;100.00;95883.16;4356436;32;20193;-60
2022/05/08 00:16:05;;;;;;;15.73;14.47;;;;;;;13.75;100.00;95885.28;4379199;32;20188;-60
2022/05/08 00:18:35;;;;;;;14.60;13.27;;;;;;;13.64;100.00;95874.06;4363706;32;20236;-60
2022/05/08 00:21:01;;;;;;;14.27;13.13;;;;;;;13.75;100.00;95871.97;4342900;32;20294;-60
2022/05/08 00:23:31;;;;;;;15.00;13.80;;;;;;;13.79;100.00;95874.81;4366482;32;20240;-60
2022/05/08 00:25:57;;;;;;;14.63;13.23;;;;;;;13.81;100.00;95876.09;4345317;32;20204;-60
2022/05/08 00:28:23;;;;;;;14.30;13.20;;;;;;;13.84;100.00;95872.06;4354488;32;20204;-62
2022/05/08 00:30:49;;;;;;;13.77;12.73;;;;;;;13.85;100.00;95871.75;4351955;32;20227;-60
2022/05/08 00:33:17;;;;;;;14.93;13.63;;;;;;;13.84;100.00;95872.06;4364711;32;20206;-60
2022/05/08 00:35:44;;;;;;;13.40;12.40;;;;;;;13.83;100.00;95876.59;4360261;32;20300;-60
2022/05/08 00:38:10;;;;;;;14.37;13.17;;;;;;;13.80;100.00;95871.06;4334913;32;20189;-60
2022/05/08 00:40:37;;;;;;;14.37;13.27;;;;;;;13.76;100.00;95873.53;4364624;32;20215;-60
2022/05/08 00:43:32;;;;;;;14.13;12.93;;;;;;;13.72;100.00;95865.34;4363445;32;20208;-60
2022/05/08 00:46:01;;;;;;;13.63;12.63;;;;;;;13.76;100.00;95869.00;4373116;32;20196;-60
2022/05/08 00:48:27;;;;;;;14.60;13.37;;;;;;;13.65;100.00;95870.31;4351604;32;20197;-60
2022/05/08 00:50:57;;;;;;;15.10;13.87;;;;;;;13.59;100.00;95860.84;4351020;32;20203;-59
2022/05/08 00:53:26;;;;;;;14.63;13.43;;;;;;;13.71;100.00;95865.69;4334657;32;20261;-60
2022/05/08 00:55:52;;;;;;;15.57;14.23;;;;;;;13.61;100.00;95866.66;4389633;32;20232;-60
2022/05/08 00:58:20;;;;;;;15.27;14.03;;;;;;;13.60;100.00;95862.41;4364459;32;20294;-60
2022/05/08 01:00:47;;;;;;;15.17;13.87;;;;;;;13.52;100.00;95863.09;4367430;32;20200;-60
2022/05/08 01:03:14;;;;;;;16.33;14.93;;;;;;;13.56;100.00;95855.31;4375603;32;20342;-60
2022/05/08 01:05:41;;;;;;;16.27;14.73;;;;;;;13.48;100.00;95859.47;4375492;32;20180;-60
2022/05/08 01:08:09;;;;;;;17.90;16.43;;;;;;;13.45;100.00;95860.06;4365636;32;20218;-60
2022/05/08 01:10:38;;;;;;;18.23;16.47;;;;;;;13.44;100.00;95855.81;4338964;32;20231;-60
2022/05/08 01:13:06;;;;;;;16.87;15.37;;;;;;;13.30;100.00;95860.38;4334521;32;20235;-60
2022/05/08 01:15:46;;;;;;;17.43;15.83;;;;;;;13.33;100.00;95863.22;4386517;32;20196;-60
2022/05/08 01:18:12;;;;;;;16.80;15.37;;;;;;;13.34;100.00;95861.34;4375503;32;20195;-60
2022/05/08 01:20:42;;;;;;;18.33;16.73;;;;;;;13.36;100.00;95853.84;4368201;32;20189;-60
2022/05/08 01:23:09;;;;;;;17.90;16.40;;;;;;;13.39;100.00;95846.06;4345834;32;20268;-60
2022/05/08 01:25:57;;;;;;;19.33;17.63;;;;;;;13.24;100.00;95849.03;4351578;32;20219;-60
2022/05/08 01:28:24;;;;;;;18.93;17.30;;;;;;;13.34;100.00;95848.03;4333051;32;20202;-61
2022/05/08 01:30:52;;;;;;;19.53;17.63;;;;;;;13.31;100.00;95854.72;4378074;32;20189;-60
2022/05/08 01:33:20;;;;;;;21.87;19.90;;;;;;;13.32;100.00;95853.66;4364790;32;20192;-60
2022/05/08 01:35:47;;;;;;;21.50;19.50;;;;;;;13.20;100.00;95858.69;4343455;32;20254;-60
2022/05/08 01:38:16;;;;;;;20.77;18.93;;;;;;;13.26;100.00;95856.72;4348590;32;20367;-60
2022/05/08 01:40:44;;;;;;;21.60;19.70;;;;;;;13.25;100.00;95855.16;4353700;32;20270;-60
2022/05/08 01:43:10;;;;;;;20.33;18.53;;;;;;;13.20;100.00;95857.91;4347586;32;20231;-60
2022/05/08 01:45:36;;;;;;;20.13;18.17;;;;;;;13.20;100.00;95852.56;4342716;32;20205;-60
2022/05/08 01:48:22;;;;;;;21.17;19.03;;;;;;;13.24;100.00;95857.03;4384332;32;20219;-60
2022/05/08 01:50:52;;;;;;;19.53;17.77;;;;;;;13.27;100.00;95855.66;4351910;32;20192;-60
2022/05/08 01:53:22;;;;;;;19.93;18.13;;;;;;;13.31;100.00;95860.06;4379234;32;20194;-60
2022/05/08 01:55:52;;;;;;;18.17;16.57;;;;;;;13.31;100.00;95853.94;4388162;32;20246;-60
2022/05/08 01:58:19;;;;;;;18.43;16.83;;;;;;;13.33;100.00;95854.44;4390363;32;20203;-60
2022/05/08 02:00:46;;;;;;;18.90;17.30;;;;;;;13.31;100.00;95859.28;4379683;32;20221;-60
2022/05/08 02:03:12;;;;;;;17.63;16.17;;;;;;;13.31;100.00;95856.59;4375302;32;20293;-60
2022/05/08 02:05:40;;;;;;;17.43;15.93;;;;;;;13.40;100.00;95857.50;4361100;32;20193;-60
2022/05/08 02:08:08;;;;;;;17.77;16.27;;;;;;;13.37;100.00;95858.09;4384949;32;20196;-60
2022/05/08 02:10:33;;;;;;;17.33;15.83;;;;;;;13.42;100.00;95860.66;4374446;32;20204;-60
2022/05/08 02:13:00;;;;;;;17.87;16.30;;;;;;;13.37;100.00;95863.44;4359122;32;20250;-60
2022/05/08 02:15:29;;;;;;;17.53;16.03;;;;;;;13.30;100.00;95857.72;4375322;32;20290;-60
2022/05/08 02:17:58;;;;;;;18.20;16.53;;;;;;;13.26;100.00;95867.38;4382154;32;20207;-60
2022/05/08 02:20:24;;;;;;;17.53;16.13;;;;;;;13.23;100.00;95859.97;4357129;32;20189;-60
2022/05/08 02:22:51;;;;;;;18.33;16.70;;;;;;;13.25;100.00;95855.16;4371913;32;20189;-60
2022/05/08 02:25:17;;;;;;;18.20;16.70;;;;;;;13.23;100.00;95860.78;4370044;32;20199;-60
2022/05/08 02:27:46;;;;;;;16.23;14.93;;;;;;;13.20;100.00;95861.34;4359524;32;20268;-60
2022/05/08 02:30:12;;;;;;;17.20;15.70;;;;;;;13.25;100.00;95847.94;4346728;32;20228;-60
2022/05/08 02:32:38;;;;;;;17.10;15.60;;;;;;;13.21;100.00;95856.81;4373060;32;20206;-60
2022/05/08 02:35:09;;;;;;;17.60;16.07;;;;;;;13.22;100.00;95853.06;4375727;32;20198;-60
2022/05/08 02:37:37;;;;;;;18.07;16.43;;;;;;;13.23;100.00;95852.00;4375251;32;20188;-60
2022/05/08 02:40:08;;;;;;;17.93;16.33;;;;;;;13.25;100.00;95847.94;4384471;32;20195;-60
2022/05/08 02:42:33;;;;;;;18.77;17.17;;;;;;;13.28;100.00;95854.56;4381983;32;20192;-60
2022/05/08 02:44:59;;;;;;;17.70;16.03;;;;;;;13.27;100.00;95848.44;4353909;32;20188;-60
2022/05/08 02:47:24;;;;;;;19.47;17.63;;;;;;;13.29;100.00;95856.16;4379146;32;20203;-61
2022/05/08 02:49:49;;;;;;;18.93;17.20;;;;;;;13.27;100.00;95858.31;4377326;32;20214;-60
2022/05/08 02:52:14;;;;;;;18.93;17.23;;;;;;;13.26;100.00;95857.53;4347424;32;20302;-60
2022/05/08 02:54:41;;;;;;;18.50;16.80;;;;;;;13.31;100.00;95856.59;4378048;32;20232;-60
2022/05/08 02:59:51;;;;;;;18.47;16.83;;;;;;;13.25;100.00;95857.81;4368937;32;20307;-59
2022/05/08 03:02:17;;;;;;;18.00;16.40;;;;;;;13.24;100.00;95858.91;4375229;32;20236;-60
2022/05/08 03:04:42;;;;;;;18.17;16.47;;;;;;;13.35;100.00;95860.25;4356054;32;20264;-60
2022/05/08 03:07:07;;;;;;;18.67;16.73;;;;;;;13.34;100.00;95854.16;4373663;32;20215;-60
2022/05/08 03:09:34;;;;;;;20.20;18.30;;;;;;;13.46;100.00;95859.00;4359433;32;20197;-60
2022/05/08 03:11:59;;;;;;;17.60;16.10;;;;;;;13.46;100.00;95852.88;4330206;32;20220;-60
2022/05/08 03:14:25;;;;;;;19.90;18.10;;;;;;;13.48;100.00;95854.16;4351383;32;20193;-60
2022/05/08 03:16:52;;;;;;;21.17;19.10;;;;;;;13.41;100.00;95859.09;4348153;32;20197;-60
2022/05/08 03:19:19;;;;;;;21.70;19.60;;;;;;;13.26;100.00;95856.72;4345072;32;20268;-60
2022/05/08 03:21:51;;;;;;;22.07;19.83;;;;;;;13.32;100.00;95855.53;4360887;32;20205;-60
2022/05/08 03:24:17;;;;;;;24.83;22.37;;;;;;;13.25;100.00;95855.94;4374689;32;20299;-60
2022/05/08 03:26:42;;;;;;;23.37;21.17;;;;;;;13.16;100.00;95854.25;4350391;32;20269;-60
2022/05/08 03:29:07;;;;;;;24.20;21.70;;;;;;;13.18;100.00;95854.75;4372322;32;20189;-60
2022/05/08 03:31:34;;;;;;;23.10;20.80;;;;;;;13.24;100.00;95861.56;4373749;32;20228;-60
2022/05/08 03:34:00;;;;;;;24.10;21.63;;;;;;;13.20;100.00;95860.56;4368974;32;20182;-60
2022/05/08 03:36:26;;;;;;;24.77;22.37;;;;;;;13.24;100.00;95859.69;4379136;32;20247;-60
2022/05/08 03:38:52;;;;;;;24.53;22.03;;;;;;;13.25;100.00;95857.81;4369308;32;20208;-60
2022/05/08 03:41:17;;;;;;;24.60;22.20;;;;;;;13.20;100.00;95857.91;4366351;32;20189;-60
2022/05/08 03:43:46;;;;;;;24.60;22.40;;;;;;;13.22;100.00;95863.72;4358070;32;20311;-60
2022/05/08 03:46:13;;;;;;;24.30;22.00;;;;;;;13.19;100.00;95857.13;4370905;32;20253;-60
2022/05/08 03:48:40;;;;;;;23.97;21.77;;;;;;;13.26;100.00;95856.72;4344847;32;20208;-60
2022/05/08 03:51:05;;;;;;;26.07;23.60;;;;;;;13.31;100.00;95860.06;4370487;32;20237;-60
2022/05/08 03:53:32;;;;;;;23.90;21.70;;;;;;;13.23;100.00;95862.66;4356638;32;20228;-60
2022/05/08 03:55:57;;;;;;;24.53;22.00;;;;;;;13.26;100.00;95864.72;4368268;32;20203;-60
2022/05/08 03:58:24;;;;;;;23.40;20.97;;;;;;;13.25;100.00;95860.47;4377404;32;20211;-60
2022/05/08 04:00:50;;;;;;;24.27;21.97;;;;;;;13.22;100.00;95861.06;4367439;32;20215;-60
2022/05/08 04:03:16;;;;;;;25.83;23.43;;;;;;;13.20;100.00;95863.22;4366051;32;20267;-59
2022/05/08 04:05:42;;;;;;;25.17;22.60;;;;;;;13.13;100.00;95866.25;4365473;32;20210;-60
2022/05/08 04:08:08;;;;;;;26.30;23.80;;;;;;;13.14;100.00;95856.38;4369726;32;20196;-60
2022/05/08 04:10:34;;;;;;;24.93;22.63;;;;;;;13.02;100.00;95864.88;4354414;32;20264;-60
2022/05/08 04:13:02;;;;;;;25.73;23.20;;;;;;;13.07;100.00;95868.25;4370811;32;20203;-60
2022/05/08 04:18:14;;;;;;;25.10;22.90;;;;;;;13.07;100.00;95862.13;4390963;32;22280;-60
2022/05/08 04:20:40;;;;;;;25.53;23.17;;;;;;;13.11;100.00;95864.97;4349144;32;20189;-60
2022/05/08 04:25:54;;;;;;;25.60;23.20;;;;;;;13.18;100.00;95870.72;4394416;32;20226;-60
2022/05/08 04:28:21;;;;;;;25.70;23.30;;;;;;;12.99;100.00;95879.56;4388625;32;20234;-60
2022/05/08 04:30:51;;;;;;;25.77;23.27;;;;;;;12.95;100.00;95878.56;4374005;32;20216;-60
2022/05/08 04:33:18;;;;;;;26.17;23.43;;;;;;;13.01;100.00;95876.63;4378514;32;20196;-60
2022/05/08 04:35:49;;;;;;;26.20;23.70;;;;;;;12.95;100.00;95878.56;4373107;32;20256;-60
2022/05/08 04:38:15;;;;;;;25.77;23.20;;;;;;;13.01;100.00;95880.06;4369311;32;20192;-60
2022/05/08 04:40:41;;;;;;;26.93;24.43;;;;;;;13.03;100.00;95880.56;4377483;32;20196;-60
2022/05/08 04:43:08;;;;;;;24.90;22.47;;;;;;;13.07;100.00;95886.09;4381618;32;20233;-60
2022/05/08 04:45:35;;;;;;;24.83;22.43;;;;;;;13.11;100.00;95880.94;4365346;32;20315;-60
2022/05/08 04:48:01;;;;;;;25.23;22.73;;;;;;;13.01;100.00;95882.72;4374433;32;20272;-59
2022/05/08 04:50:28;;;;;;;25.40;23.00;;;;;;;13.04;100.00;95879.47;4373137;32;20206;-59
2022/05/08 04:52:53;;;;;;;24.90;22.47;;;;;;;13.07;100.00;95880.78;4381876;32;20230;-61
2022/05/08 04:55:20;;;;;;;27.13;24.53;;;;;;;13.16;100.00;95884.34;4354397;32;20189;-60
2022/05/08 04:57:45;;;;;;;27.57;24.87;;;;;;;13.04;100.00;95882.16;4346525;32;20280;-59
2022/05/08 05:00:11;;;;;;;25.30;22.87;;;;;;;13.14;100.00;95896.34;4365692;32;20306;-60
2022/05/08 05:02:37;;;;;;;25.47;23.07;;;;;;;13.12;100.00;95890.53;4367182;32;20185;-60
2022/05/08 05:05:03;;;;;;;25.50;23.13;;;;;;;13.13;100.00;95900.09;4350022;32;20211;-59
2022/05/08 05:07:29;;;;;;;25.30;22.70;;;;;;;13.22;100.00;95893.84;4334424;32;20193;-60
2022/05/08 05:09:55;;;;;;;23.60;21.50;;;;;;;13.23;100.00;95895.41;4382285;32;20205;-60
2022/05/08 05:12:23;;;;;;;24.73;22.53;;;;;;;13.33;100.00;95900.53;4379196;32;20188;-60
2022/05/08 05:14:48;;;;;;;24.10;21.90;;;;;;;13.33;100.00;95905.88;4366700;32;20235;-60
2022/05/08 05:17:14;;;;;;;24.83;22.63;;;;;;;13.20;100.00;95903.19;4361651;32;20215;-59
2022/05/08 05:19:39;;;;;;;23.77;21.60;;;;;;;13.24;100.00;95902.31;4374855;32;20212;-59
2022/05/08 05:22:06;;;;;;;24.63;22.33;;;;;;;13.25;100.00;95908.44;4385690;32;20188;-60
2022/05/08 05:24:31;;;;;;;23.97;21.70;;;;;;;13.21;100.00;95905.56;4371481;32;20305;-59
2022/05/08 05:26:57;;;;;;;24.60;22.40;;;;;;;13.14;100.00;95904.34;4372261;32;20196;-60
2022/05/08 05:29:24;;;;;;;23.13;20.83;;;;;;;13.20;100.00;95911.19;4380057;32;20245;-60
2022/05/08 05:31:49;;;;;;;24.80;22.50;;;;;;;13.19;100.00;95909.63;4366487;32;20188;-59
2022/05/08 05:34:14;;;;;;;23.03;21.03;;;;;;;13.31;100.00;95910.69;4353986;32;20206;-60
2022/05/08 05:36:42;;;;;;;24.33;22.10;;;;;;;13.41;100.00;95910.50;4389357;32;20264;-60
2022/05/08 05:39:09;;;;;;;24.40;22.03;;;;;;;13.35;100.00;95913.56;4339644;32;20192;-60
2022/05/08 05:41:35;;;;;;;24.77;22.47;;;;;;;13.36;100.00;95912.47;4365676;32;20236;-60
2022/05/08 05:44:00;;;;;;;24.83;22.40;;;;;;;13.37;100.00;95914.84;4365535;32;20188;-60
2022/05/08 05:49:11;;;;;;;24.50;22.10;;;;;;;13.39;100.00;95919.88;4385444;32;20207;-59
2022/05/08 05:51:37;;;;;;;25.17;22.87;;;;;;;13.31;100.00;95917.91;4366805;32;20205;-60
2022/05/08 05:54:02;;;;;;;24.43;22.20;;;;;;;13.24;100.00;95917.53;4370946;32;20189;-60
2022/05/08 05:56:30;;;;;;;25.03;22.47;;;;;;;13.35;100.00;95918.91;4366642;32;20203;-59
2022/05/08 05:58:55;;;;;;;25.33;23.03;;;;;;;13.35;100.00;95918.91;4360185;32;20259;-60
2022/05/08 06:01:21;;;;;;;24.50;22.30;;;;;;;13.40;100.00;95916.94;4377335;32;20193;-59
2022/05/08 06:03:46;;;;;;;26.17;23.57;;;;;;;13.44;100.00;95922.47;4340984;32;20268;-60
2022/05/08 06:06:12;;;;;;;26.13;23.60;;;;;;;13.32;100.00;95914.16;4359172;32;20278;-60
2022/05/08 06:08:38;;;;;;;24.97;22.67;;;;;;;13.41;100.00;95923.06;4388767;32;20203;-60
2022/05/08 06:11:08;;;;;;;24.73;22.43;;;;;;;13.48;100.00;95923.47;4358466;32;20212;-60
2022/05/08 06:13:34;;;;;;;25.03;22.77;;;;;;;13.52;99.96;95924.41;4343941;32;20233;-60
2022/05/08 06:15:59;;;;;;;24.40;22.30;;;;;;;13.43;100.00;95922.75;4355441;32;20192;-60
2022/05/08 06:18:25;;;;;;;25.63;23.23;;;;;;;13.50;100.00;95926.62;4356179;32;20196;-60
2022/05/08 06:20:52;;;;;;;23.90;21.60;;;;;;;13.59;100.00;95926.69;4358309;32;20256;-60
2022/05/08 06:23:18;;;;;;;26.10;23.50;;;;;;;13.64;99.24;95929.28;4362369;32;20222;-60
2022/05/08 06:25:44;;;;;;;22.13;19.90;;;;;;;13.54;99.70;95930.25;4348879;32;20196;-60
2022/05/08 06:28:10;;;;;;;22.80;20.80;;;;;;;13.57;98.83;95929.66;4348780;32;20284;-59
2022/05/08 06:30:35;;;;;;;20.63;18.80;;;;;;;13.64;99.31;95926.59;4371873;32;20193;-59
2022/05/08 06:33:06;;;;;;;21.27;19.47;;;;;;;13.73;98.90;95925.59;4373647;32;20243;-60
2022/05/08 06:35:31;;;;;;;21.60;19.67;;;;;;;13.76;98.01;95929.53;4360149;32;20192;-60
2022/05/08 06:37:56;;;;;;;19.60;17.97;;;;;;;13.77;97.43;95923.13;4361437;32;20274;-60
2022/05/08 06:40:22;;;;;;;20.47;18.53;;;;;;;13.67;98.14;95926.81;4389118;32;20208;-60
2022/05/08 06:42:50;;;;;;;23.43;21.33;;;;;;;13.75;97.64;95928.75;4347703;32;20189;-60
2022/05/08 06:45:18;;;;;;;23.43;21.23;;;;;;;13.74;97.50;95929.84;4354643;32;20335;-60
2022/05/08 06:47:43;;;;;;;20.77;18.87;;;;;;;13.83;97.61;95931.81;4374957;32;21385;-60
2022/05/08 06:50:11;;;;;;;20.23;18.33;;;;;;;13.76;97.54;95929.53;4345885;32;20192;-60
2022/05/08 06:52:36;;;;;;;19.57;17.87;;;;;;;13.87;97.17;95935.47;4356438;32;20188;-60
2022/05/08 06:55:02;;;;;;;19.43;17.83;;;;;;;13.97;96.14;95938.69;4378095;32;20256;-60
2022/05/08 06:57:29;;;;;;;19.07;17.47;;;;;;;13.91;96.18;95933.78;4378205;32;20318;-60
2022/05/08 07:02:42;;;;;;;19.67;17.87;;;;;;;13.96;95.76;95933.66;4393302;32;20225;-60
2022/05/08 07:05:10;;;;;;;19.00;17.30;;;;;;;13.98;96.02;95939.50;4392468;32;20215;-60
2022/05/08 07:07:36;;;;;;;18.33;16.87;;;;;;;13.94;95.50;95941.16;4356804;32;20193;-60
2022/05/08 07:10:03;;;;;;;17.03;15.53;;;;;;;13.96;95.54;95939.00;4385661;32;20244;-60
2022/05/08 07:12:30;;;;;;;18.40;16.80;;;;;;;14.05;94.73;95942.56;4348594;32;20220;-60
2022/05/08 07:14:55;;;;;;;18.87;17.37;;;;;;;14.02;94.81;95933.25;4367609;32;20205;-60
2022/05/08 07:17:21;;;;;;;18.97;17.37;;;;;;;13.97;95.26;95946.72;4370742;32;20196;-60
2022/05/08 07:19:48;;;;;;;17.73;16.33;;;;;;;14.05;93.85;95947.88;4377309;32;20344;-60
2022/05/08 07:22:16;;;;;;;18.93;17.37;;;;;;;13.95;94.47;95948.09;4370566;32;20291;-60
2022/05/08 07:24:42;;;;;;;20.03;18.13;;;;;;;13.94;93.87;95946.50;4344829;32;20236;-60
2022/05/08 07:27:11;;;;;;;18.63;17.03;;;;;;;13.95;94.24;95951.53;4356689;32;20204;-60
2022/05/08 07:29:43;;;;;;;19.07;17.47;;;;;;;13.96;93.31;95952.34;4380550;32;20231;-60
2022/05/08 07:32:09;;;;;;;18.80;17.10;;;;;;;13.98;93.47;95952.84;4378676;32;20189;-60
2022/05/08 07:37:18;;;;;;;18.27;16.67;;;;;;;13.92;94.01;95965.50;4358011;32;20246;-60
2022/05/08 07:39:44;;;;;;;18.93;17.37;;;;;;;13.91;93.32;95950.59;4383389;32;20192;-60
2022/05/08 07:42:10;;;;;;;16.27;14.97;;;;;;;13.96;93.73;95957.69;4367111;32;20268;-60
2022/05/08 07:44:36;;;;;;;18.17;16.67;;;;;;;14.03;92.79;95963.41;4385861;32;20199;-60
2022/05/08 07:47:03;;;;;;;17.80;16.20;;;;;;;14.08;92.16;95964.09;4350062;32;20228;-60
2022/05/08 07:49:29;;;;;;;17.70;16.20;;;;;;;14.07;92.64;95967.06;4346239;32;20209;-60
2022/05/08 07:51:55;;;;;;;17.17;15.80;;;;;;;14.12;92.73;95960.84;4322838;32;20193;-61
2022/05/08 07:54:23;;;;;;;16.93;15.53;;;;;;;14.16;92.76;95959.91;4332291;32;20247;-60
2022/05/08 07:56:49;;;;;;;16.90;15.50;;;;;;;14.25;92.49;95958.12;4352344;32;20193;-59
2022/05/08 07:59:15;;;;;;;19.53;17.77;;;;;;;14.30;92.40;95957.22;4362123;32;20330;-59
2022/05/08 08:01:42;;;;;;;16.87;15.47;;;;;;;14.31;92.24;95962.28;4383882;32;20258;-60
2022/05/08 08:04:09;;;;;;;15.93;14.60;;;;;;;14.25;92.90;95968.00;4360573;32;20278;-60
2022/05/08 08:06:37;;;;;;;17.70;16.17;;;;;;;14.25;92.35;95974.13;4379398;32;20241;-60
2022/05/08 08:09:04;;;;;;;16.80;15.30;;;;;;;14.23;92.91;95965.62;4353484;32;20297;-60
2022/05/08 08:11:31;;;;;;;16.27;14.87;;;;;;;14.37;92.33;95974.41;4329569;32;20361;-60
2022/05/08 08:13:58;;;;;;;14.70;13.50;;;;;;;14.40;91.41;95989.84;4329093;32;20192;-60
2022/05/08 08:16:24;;;;;;;16.07;14.60;;;;;;;14.38;90.68;95975.19;4354263;32;20192;-63
2022/05/08 08:18:50;;;;;;;14.87;13.77;;;;;;;14.46;90.78;95974.50;4323887;32;20287;-60
2022/05/08 08:21:16;;;;;;;13.73;12.73;;;;;;;14.53;90.59;95982.13;4355228;32;20342;-60
2022/05/08 08:23:43;;;;;;;13.13;12.17;;;;;;;14.50;89.99;95980.03;4379365;32;20242;-60
2022/05/08 08:26:10;;;;;;;13.63;12.40;;;;;;;14.54;89.95;95973.00;4368435;32;20215;-60
2022/05/08 08:28:38;;;;;;;13.43;12.43;;;;;;;14.54;89.33;95981.81;4381662;32;20207;-60
2022/05/08 08:31:07;;;;;;;13.60;12.53;;;;;;;14.58;89.17;95981.97;4356854;32;20193;-60
2022/05/08 08:33:40;;;;;;;12.07;11.27;;;;;;;14.55;89.22;95985.28;4358133;32;20234;-60
2022/05/08 08:36:10;;;;;;;12.90;11.90;;;;;;;14.54;89.95;95981.03;4356365;32;20201;-60
2022/05/08 08:38:40;;;;;;;14.27;12.97;;;;;;;14.53;90.09;95980.22;4392192;32;20211;-60
2022/05/08 08:41:07;;;;;;;12.77;11.83;;;;;;;14.53;90.48;95992.78;4371110;32;20207;-60
2022/05/08 08:49:23;;;;;;;12.03;11.13;;;;;;;14.58;91.30;95998.78;4365109;32;20230;-60
2022/05/08 08:51:50;;;;;;;12.00;11.10;;;;;;;14.65;89.40;95998.38;4351908;32;20199;-60
2022/05/08 08:54:21;;;;;;;12.10;11.10;;;;;;;14.56;89.62;96000.19;4349375;32;20396;-60
2022/05/08 08:56:50;;;;;;;11.40;10.50;;;;;;;14.53;89.87;95996.25;4326900;32;20197;-60
2022/05/08 08:59:16;;;;;;;12.33;11.20;;;;;;;14.56;89.62;95995.62;4365639;32;20310;-60
2022/05/08 09:01:43;;;;;;;12.43;11.50;;;;;;;14.70;89.71;95990.25;4344950;32;20244;-60
2022/05/08 09:04:10;;;;;;;11.27;10.47;;;;;;;14.66;89.10;95994.63;4374000;32;20192;-60
2022/05/08 09:06:45;;;;;;;10.93;10.13;;;;;;;14.60;88.80;96003.81;4353032;32;20212;-60
2022/05/08 09:09:27;;;;;;;11.43;10.53;;;;;;;14.68;87.93;96001.25;4340929;32;20252;-60
2022/05/08 09:11:58;;;;;;;10.57;9.87;;;;;;;14.60;88.62;96007.28;4355007;32;20256;-60
2022/05/08 09:14:35;;;;;;;13.83;12.73;;;;;;;14.65;88.59;96009.06;4352959;32;20209;-61
2022/05/08 09:17:07;;;;;;;10.43;9.67;;;;;;;14.59;88.89;96005.72;4351564;32;20188;-60
2022/05/08 09:19:37;;;;;;;11.43;9.90;;;;;;;14.66;89.32;96005.31;4360709;32;20297;-60
2022/05/08 09:22:19;;;;;;;11.03;9.90;;;;;;;14.80;89.69;96006.03;4359608;32;20235;-60
2022/05/08 09:25:02;;;;;;;9.17;8.57;;;;;;;14.85;88.42;96008.59;4334488;32;20256;-60
2022/05/08 09:27:32;;;;;;;9.97;9.07;;;;;;;14.91;87.89;96007.41;4372228;32;20192;-60
2022/05/08 09:30:09;;;;;;;10.17;9.30;;;;;;;14.88;86.89;96009.88;4354221;32;20193;-60
2022/05/08 09:32:42;;;;;;;10.17;9.37;;;;;;;14.82;86.48;96003.84;4339535;32;20212;-60
2022/05/08 09:35:07;;;;;;;9.33;8.63;;;;;;;14.85;86.73;96008.59;4366433;32;20197;-60
2022/05/08 09:37:33;;;;;;;9.27;8.60;;;;;;;14.91;86.33;96006.59;4350592;32;20201;-60
2022/05/08 09:40:29;;;;;;;10.33;9.53;;;;;;;14.88;86.90;96002.66;4320849;32;20193;-59
2022/05/08 09:42:56;;;;;;;9.83;9.07;;;;;;;14.95;87.30;96003.03;4347912;32;20215;-61
2022/05/08 09:45:22;;;;;;;9.73;8.97;;;;;;;14.96;87.60;96003.81;4375468;32;20192;-60
2022/05/08 09:47:49;;;;;;;10.13;9.43;;;;;;;15.08;87.50;96002.16;4338140;32;20295;-60
2022/05/08 09:50:18;;;;;;;8.80;8.20;;;;;;;15.11;86.79;96003.44;4334261;32;20193;-60
2022/05/08 09:52:45;;;;;;;9.33;8.73;;;;;;;15.07;86.98;96011.28;4319401;32;20286;-60
2022/05/08 09:55:14;;;;;;;9.90;9.30;;;;;;;14.92;87.31;96011.66;4344013;32;20200;-60
2022/05/08 09:57:40;;;;;;;9.27;8.50;;;;;;;15.00;87.00;96002.88;4333142;32;20196;-60
2022/05/08 10:00:12;;;;;;;8.67;8.17;;;;;;;14.93;87.89;95999.87;4345163;32;20202;-60
2022/05/08 10:02:43;;;;;;;8.43;7.90;;;;;;;14.94;87.79;95998.78;4383937;32;20225;-60
2022/05/08 10:05:10;;;;;;;8.50;8.00;;;;;;;15.08;87.07;96007.50;4386196;32;20313;-60
2022/05/08 10:07:39;;;;;;;8.07;7.57;;;;;;;15.08;85.77;95996.03;4367870;32;20242;-60
2022/05/08 10:15:43;;;;;;;7.93;7.33;;;;;;;15.15;84.55;96006.28;4379336;32;20234;-60
2022/05/08 10:18:31;;;;;;;8.50;8.00;;;;;;;15.13;84.79;96002.03;4381430;32;20200;-60
2022/05/08 10:21:16;;;;;;;8.60;7.97;;;;;;;15.10;85.49;96004.53;4377312;32;20183;-61
2022/05/08 10:23:45;;;;;;;8.67;8.07;;;;;;;15.22;84.32;96006.63;4388044;32;20188;-60
2022/05/08 10:26:23;;;;;;;8.63;7.93;;;;;;;15.31;84.23;96004.81;4372984;32;20234;-60
2022/05/08 10:29:04;;;;;;;8.37;7.70;;;;;;;15.37;83.80;96003.59;4381858;32;20188;-60
2022/05/08 10:31:45;;;;;;;7.83;7.20;;;;;;;15.44;83.46;96001.25;4384595;32;20250;-60
2022/05/08 10:34:16;;;;;;;8.60;7.90;;;;;;;15.44;83.27;96007.41;4385319;32;20253;-60
2022/05/08 10:37:19;;;;;;;7.80;7.30;;;;;;;15.42;83.21;96001.56;4366799;32;20212;-60
2022/05/08 10:39:51;;;;;;;8.63;7.87;;;;;;;15.46;83.73;95999.06;4362822;32;20192;-60
2022/05/08 10:42:33;;;;;;;7.37;6.90;;;;;;;15.65;83.66;95998.87;4390509;32;20295;-59
2022/05/08 10:45:03;;;;;;;7.63;7.00;;;;;;;15.68;81.38;96003.59;4357328;32;20240;-60
2022/05/08 10:47:57;;;;;;;7.63;7.13;;;;;;;15.74;80.82;96003.16;4378170;32;20305;-60
2022/05/08 10:50:25;;;;;;;8.07;7.47;;;;;;;15.67;80.98;96000.13;4386104;32;20196;-60
2022/05/08 10:52:52;;;;;;;7.97;7.33;;;;;;;15.55;81.92;95999.91;4388164;32;20204;-60
2022/05/08 10:55:19;;;;;;;8.17;7.57;;;;;;;15.46;82.45;95999.84;4366795;32;20237;-60
2022/05/08 10:57:47;;;;;;;8.27;7.77;;;;;;;15.46;82.65;96007.09;4386035;32;20295;-60
2022/05/08 11:00:25;;;;;;;8.40;7.70;;;;;;;15.45;83.37;96003.62;4358433;32;20358;-60
2022/05/08 11:02:56;;;;;;;7.63;7.10;;;;;;;15.55;82.94;96005.25;4369161;32;20188;-60
2022/05/08 11:05:32;;;;;;;7.97;7.37;;;;;;;15.62;82.48;96002.16;4349302;32;20211;-60
2022/05/08 11:08:08;;;;;;;7.53;7.03;;;;;;;15.59;82.92;95998.22;4376687;32;20192;-60
2022/05/08 11:10:35;;;;;;;7.87;7.20;;;;;;;15.66;82.01;96000.44;4378388;32;20262;-60
2022/05/08 11:13:21;;;;;;;8.07;7.43;;;;;;;15.59;81.78;95994.78;4370069;32;20181;-60
2022/05/08 11:15:49;;;;;;;7.80;7.40;;;;;;;15.65;82.48;95998.87;4380323;32;20262;-60
2022/05/08 11:18:24;;;;;;;7.93;7.33;;;;;;;15.65;82.29;95988.97;4372645;32;20234;-60
2022/05/08 11:21:14;;;;;;;7.47;6.97;;;;;;;15.72;81.67;95983.97;4378485;32;20211;-60
2022/05/08 11:23:44;;;;;;;7.60;7.10;;;;;;;15.93;80.84;95991.44;4386658;32;20188;-60
2022/05/08 11:26:12;;;;;;;7.67;7.17;;;;;;;16.07;80.05;95987.53;4363873;32;20210;-60
2022/05/08 11:29:16;;;;;;;7.97;7.47;;;;;;;16.11;80.21;95998.41;4368492;32;20204;-60
2022/05/08 11:36:04;;;;;;;7.37;6.93;;;;;;;16.06;78.48;95991.28;4362523;32;20195;-60
2022/05/08 11:37:22;;;;;;;7.73;7.07;;;;;;;16.20;78.58;95982.38;4387738;32;20237;-60
2022/05/08 11:39:50;;;;;;;7.93;7.33;;;;;;;16.28;78.26;95992.28;4385974;32;20185;-60
2022/05/08 11:42:17;;;;;;;7.70;7.20;;;;;;;16.38;77.46;95984.75;4381157;32;20192;-60
2022/05/08 11:45:03;;;;;;;8.13;7.33;;;;;;;16.47;76.40;95998.94;4382655;32;20198;-60
2022/05/08 11:47:28;;;;;;;7.37;6.93;;;;;;;16.38;76.90;95989.31;4407308;32;20211;-61
2022/05/08 11:49:54;;;;;;;8.33;7.73;;;;;;;16.40;77.33;95997.84;4391003;32;20204;-61
2022/05/08 11:52:21;;;;;;;6.97;6.50;;;;;;;16.35;78.07;95993.41;4386309;32;20200;-60
2022/05/08 11:55:02;;;;;;;7.57;7.17;;;;;;;16.54;77.20;95981.59;4380254;32;20192;-60